createdAt,value
2023-08-31T00:00:22.261Z,72670.25
2023-08-31T00:00:57.808Z,72666.25
2023-08-31T00:01:30.275Z,72666.25
2023-08-31T00:02:02.811Z,72666.25
2023-08-31T00:02:35.182Z,72670.25
2023-08-31T00:03:13.277Z,72674.25
2023-08-31T00:03:46.117Z,72670.25
2023-08-31T00:04:18.569Z,72662.28
2023-08-31T00:04:53.512Z,72666.25
2023-08-31T00:05:30.047Z,72666.25
2023-08-31T00:06:03.545Z,72674.25
2023-08-31T00:06:35.956Z,72672.25
2023-08-31T00:07:08.360Z,72674.25
2023-08-31T00:07:43.787Z,72676.25
2023-08-31T00:08:16.156Z,72672.25
2023-08-31T00:08:48.611Z,72680.22
2023-08-31T00:09:23.617Z,72674.25
2023-08-31T00:09:56.701Z,72678.22
2023-08-31T00:10:31.090Z,72678.22
2023-08-31T00:11:06.750Z,72676.25
2023-08-31T00:11:39.125Z,72674.25
2023-08-31T00:12:11.471Z,72674.25
2023-08-31T00:12:46.701Z,72674.25
2023-08-31T00:13:19.037Z,72674.25
2023-08-31T00:13:51.485Z,72672.25
2023-08-31T00:14:27.035Z,72670.25
2023-08-31T00:14:59.468Z,72668.25
2023-08-31T00:15:34.073Z,72670.25
2023-08-31T00:16:06.544Z,72674.25
2023-08-31T00:16:42.093Z,72666.25
2023-08-31T00:17:14.740Z,72674.25
2023-08-31T00:17:47.157Z,72674.25
2023-08-31T00:18:22.286Z,72678.22
2023-08-31T00:18:57.442Z,72678.22
2023-08-31T00:19:29.956Z,72678.22
2023-08-31T00:20:02.307Z,72674.25
2023-08-31T00:20:37.368Z,72674.25
2023-08-31T00:21:11.586Z,72678.22
2023-08-31T00:21:44.255Z,72674.25
2023-08-31T00:22:19.253Z,72682.22
2023-08-31T00:22:51.665Z,72678.22
2023-08-31T00:23:24.513Z,72682.22
2023-08-31T00:23:56.888Z,72678.22
2023-08-31T00:24:33.185Z,72676.25
2023-08-31T00:25:07.069Z,72676.25
2023-08-31T00:25:39.417Z,72676.25
2023-08-31T00:26:14.409Z,72678.22
2023-08-31T00:26:47.242Z,72680.22
2023-08-31T00:27:19.704Z,72678.22
2023-08-31T00:27:55.058Z,72678.22
2023-08-31T00:28:30.105Z,72676.25
2023-08-31T00:29:02.458Z,72676.25
2023-08-31T00:29:34.881Z,72678.22
2023-08-31T00:30:09.269Z,72670.25
2023-08-31T00:30:45.913Z,72678.22
2023-08-31T00:31:19.709Z,72672.25
2023-08-31T00:31:52.528Z,72678.22
2023-08-31T00:32:25.050Z,72678.22
2023-08-31T00:33:01.478Z,72678.22
2023-08-31T00:33:37.266Z,72678.22
2023-08-31T00:34:09.670Z,72682.22
2023-08-31T00:34:43.784Z,72676.25
2023-08-31T00:35:18.836Z,72682.22
2023-08-31T00:35:51.216Z,72682.22
2023-08-31T00:36:24.359Z,72682.22
2023-08-31T00:36:59.304Z,72682.22
2023-08-31T00:37:31.752Z,72682.22
2023-08-31T00:38:05.919Z,72682.22
2023-08-31T00:38:40.877Z,72682.22
2023-08-31T00:39:14.623Z,72686.22
2023-08-31T00:39:48.677Z,72684.22
2023-08-31T00:40:21.161Z,72680.22
2023-08-31T00:40:56.468Z,72686.22
2023-08-31T00:41:29.164Z,72684.22
2023-08-31T00:42:01.876Z,72686.22
2023-08-31T00:42:38.874Z,72688.22
2023-08-31T00:43:11.581Z,72686.22
2023-08-31T00:43:44.067Z,72688.22
2023-08-31T00:44:18.025Z,72690.22
2023-08-31T00:44:57.213Z,72690.22
2023-08-31T00:45:29.625Z,72688.22
2023-08-31T00:46:02.374Z,72682.22
2023-08-31T00:46:36.064Z,72686.22
2023-08-31T00:47:11.611Z,72686.22
2023-08-31T00:47:44.028Z,72686.22
2023-08-31T00:48:18.208Z,72682.22
2023-08-31T00:48:53.184Z,72686.22
2023-08-31T00:49:28.588Z,72686.22
2023-08-31T00:50:01.631Z,72682.22
2023-08-31T00:50:34.309Z,72686.22
2023-08-31T00:51:08.812Z,72686.22
2023-08-31T00:51:49.872Z,72686.22
2023-08-31T00:52:22.358Z,72680.22
2023-08-31T00:52:54.805Z,72674.25
2023-08-31T00:53:27.251Z,72678.22
2023-08-31T00:54:02.226Z,72684.22
2023-08-31T00:54:34.740Z,72678.22
2023-08-31T00:55:09.677Z,72682.22
2023-08-31T00:55:44.976Z,72682.22
2023-08-31T00:56:19.329Z,72682.22
2023-08-31T00:56:55.155Z,72678.22
2023-08-31T00:57:31.437Z,72678.22
2023-08-31T00:58:04.005Z,72678.22
2023-08-31T00:58:36.660Z,72670.25
2023-08-31T00:59:09.037Z,72672.25
2023-08-31T00:59:44.022Z,72674.25
2023-08-31T01:00:17.856Z,72674.25
2023-08-31T01:00:56.837Z,72674.25
2023-08-31T01:01:41.876Z,72676.25
2023-08-31T01:02:21.791Z,72670.25
2023-08-31T01:03:02.515Z,72674.25
2023-08-31T01:03:43.580Z,72674.25
2023-08-31T01:04:25.607Z,72674.25
2023-08-31T01:05:00.721Z,72674.25
2023-08-31T01:05:43.933Z,72674.25
2023-08-31T01:06:32.891Z,72668.25
2023-08-31T01:07:13.354Z,72670.25
2023-08-31T01:07:53.565Z,72670.25
2023-08-31T01:08:36.963Z,72668.25
2023-08-31T01:09:17.849Z,72666.25
2023-08-31T01:09:55.656Z,72662.28
2023-08-31T01:10:36.004Z,72668.25
2023-08-31T01:11:18.815Z,72662.28
2023-08-31T01:12:04.305Z,72666.25
2023-08-31T01:12:42.064Z,72668.25
2023-08-31T01:13:18.935Z,72666.25
2023-08-31T01:13:55.276Z,72670.25
2023-08-31T01:14:33.774Z,72670.25
2023-08-31T01:15:11.042Z,72668.25
2023-08-31T01:15:47.668Z,72670.25
2023-08-31T01:16:21.351Z,72666.25
2023-08-31T01:16:55.005Z,72674.25
2023-08-31T01:17:32.638Z,72664.25
2023-08-31T01:18:06.024Z,72666.25
2023-08-31T01:18:40.985Z,72664.25
2023-08-31T01:19:26.628Z,72660.28
2023-08-31T01:20:00.647Z,72664.25
2023-08-31T01:20:36.181Z,72666.25
2023-08-31T01:21:17.202Z,72666.25
2023-08-31T01:21:51.877Z,72662.28
2023-08-31T01:22:32.355Z,72666.25
2023-08-31T01:23:11.682Z,72674.25
2023-08-31T01:23:52.582Z,72670.25
2023-08-31T01:24:24.976Z,72668.25
2023-08-31T01:24:58.141Z,72670.25
2023-08-31T01:25:34.380Z,72672.25
2023-08-31T01:26:06.913Z,72670.25
2023-08-31T01:26:40.056Z,72678.22
2023-08-31T01:27:12.618Z,72678.22
2023-08-31T01:27:48.051Z,72674.25
2023-08-31T01:28:21.717Z,72676.25
2023-08-31T01:28:54.503Z,72680.22
2023-08-31T01:29:27.119Z,72678.22
2023-08-31T01:30:02.346Z,72682.22
2023-08-31T01:30:35.700Z,72678.22
2023-08-31T01:31:08.562Z,72684.22
2023-08-31T01:31:47.526Z,72678.22
2023-08-31T01:32:20.354Z,72678.22
2023-08-31T01:32:53.222Z,72680.22
2023-08-31T01:33:25.756Z,72682.22
2023-08-31T01:34:00.730Z,72682.22
2023-08-31T01:34:33.194Z,72684.22
2023-08-31T01:35:07.365Z,72686.22
2023-08-31T01:35:44.462Z,72680.22
2023-08-31T01:36:24.641Z,72694.19
2023-08-31T01:37:00.372Z,72686.22
2023-08-31T01:37:37.498Z,72686.22
2023-08-31T01:38:10.557Z,72686.22
2023-08-31T01:38:48.239Z,72686.22
2023-08-31T01:39:27.870Z,72692.22
2023-08-31T01:40:05.417Z,72690.22
2023-08-31T01:40:42.399Z,72690.22
2023-08-31T01:41:18.973Z,72692.22
2023-08-31T01:41:56.684Z,72686.22
2023-08-31T01:42:32.240Z,72688.22
2023-08-31T01:43:05.443Z,72686.22
2023-08-31T01:43:40.626Z,72690.22
2023-08-31T01:44:15.732Z,72694.19
2023-08-31T01:44:52.434Z,72694.19
2023-08-31T01:45:27.271Z,72698.19
2023-08-31T01:46:00.116Z,72702.19
2023-08-31T01:46:35.325Z,72698.19
2023-08-31T01:47:08.528Z,72698.19
2023-08-31T01:47:41.104Z,72696.19
2023-08-31T01:48:17.804Z,72696.19
2023-08-31T01:48:50.186Z,72700.19
2023-08-31T01:49:22.554Z,72700.19
2023-08-31T01:49:57.254Z,72698.19
2023-08-31T01:50:32.781Z,72702.19
2023-08-31T01:51:05.145Z,72706.19
2023-08-31T01:51:39.275Z,72704.19
2023-08-31T01:52:12.689Z,72706.19
2023-08-31T01:52:47.679Z,72702.19
2023-08-31T01:53:20.110Z,72698.19
2023-08-31T01:53:52.900Z,72698.19
2023-08-31T01:54:27.929Z,72694.19
2023-08-31T01:55:04.464Z,72692.22
2023-08-31T01:55:36.948Z,72690.22
2023-08-31T01:56:09.349Z,72690.22
2023-08-31T01:56:43.041Z,72688.22
2023-08-31T01:57:18.985Z,72688.22
2023-08-31T01:58:10.118Z,72694.19
2023-08-31T01:58:42.539Z,72696.19
2023-08-31T01:59:15.128Z,72698.19
2023-08-31T01:59:50.636Z,72690.22
2023-08-31T02:00:23.189Z,72694.19
2023-08-31T02:00:55.737Z,72696.19
2023-08-31T02:01:30.834Z,72694.19
2023-08-31T02:02:03.712Z,72690.22
2023-08-31T02:02:36.421Z,72680.22
2023-08-31T02:03:09.589Z,72684.22
2023-08-31T02:03:44.884Z,72688.22
2023-08-31T02:04:17.257Z,72688.22
2023-08-31T02:04:49.626Z,72688.22
2023-08-31T02:05:24.583Z,72688.22
2023-08-31T02:05:59.093Z,72688.22
2023-08-31T02:06:31.498Z,72690.22
2023-08-31T02:07:04.234Z,72692.22
2023-08-31T02:07:39.174Z,72694.19
2023-08-31T02:08:11.619Z,72692.22
2023-08-31T02:08:45.570Z,72690.22
2023-08-31T02:09:17.916Z,72702.19
2023-08-31T02:09:52.864Z,72694.19
2023-08-31T02:10:28.539Z,72698.19
2023-08-31T02:11:00.904Z,72706.19
2023-08-31T02:11:33.457Z,72702.19
2023-08-31T02:12:06.503Z,72702.19
2023-08-31T02:12:41.903Z,72702.19
2023-08-31T02:13:15.680Z,72698.19
2023-08-31T02:13:48.176Z,72704.19
2023-08-31T02:14:20.608Z,72702.19
2023-08-31T02:14:56.821Z,72706.19
2023-08-31T02:15:29.204Z,72702.19
2023-08-31T02:16:01.720Z,72702.19
2023-08-31T02:16:34.215Z,72710.16
2023-08-31T02:17:09.441Z,72706.19
2023-08-31T02:17:41.973Z,72706.19
2023-08-31T02:18:14.344Z,72706.19
2023-08-31T02:18:46.882Z,72708.19
2023-08-31T02:19:21.848Z,72698.19
2023-08-31T02:19:54.210Z,72702.19
2023-08-31T02:20:28.022Z,72704.19
2023-08-31T02:21:03.042Z,72706.19
2023-08-31T02:21:35.404Z,72708.19
2023-08-31T02:22:07.764Z,72704.19
2023-08-31T02:22:40.135Z,72710.16
2023-08-31T02:23:15.283Z,72706.19
2023-08-31T02:23:47.652Z,72714.16
2023-08-31T02:24:20.028Z,72714.16
2023-08-31T02:24:55.005Z,72714.16
2023-08-31T02:25:30.883Z,72714.16
2023-08-31T02:26:03.270Z,72718.16
2023-08-31T02:26:37.626Z,72714.16
2023-08-31T02:27:09.984Z,72714.16
2023-08-31T02:27:45.053Z,72718.16
2023-08-31T02:28:19.193Z,72710.16
2023-08-31T02:28:51.629Z,72720.16
2023-08-31T02:29:24.166Z,72718.16
2023-08-31T02:29:59.126Z,72718.16
2023-08-31T02:30:33.163Z,72714.16
2023-08-31T02:31:06.608Z,72716.16
2023-08-31T02:31:43.006Z,72714.16
2023-08-31T02:32:15.395Z,72722.16
2023-08-31T02:32:48.560Z,72714.16
2023-08-31T02:33:20.965Z,72718.16
2023-08-31T02:33:55.945Z,72712.16
2023-08-31T02:34:28.302Z,72714.16
2023-08-31T02:35:00.926Z,72714.16
2023-08-31T02:35:35.955Z,72712.16
2023-08-31T02:36:10.715Z,72712.16
2023-08-31T02:36:43.108Z,72708.19
2023-08-31T02:37:16.470Z,72704.19
2023-08-31T02:37:53.343Z,72712.16
2023-08-31T02:38:25.900Z,72710.16
2023-08-31T02:38:58.357Z,72714.16
2023-08-31T02:39:30.775Z,72712.16
2023-08-31T02:40:09.879Z,72708.19
2023-08-31T02:40:42.361Z,72702.19
2023-08-31T02:41:14.717Z,72706.19
2023-08-31T02:41:47.081Z,72710.16
2023-08-31T02:42:22.062Z,72714.16
2023-08-31T02:42:54.449Z,72706.19
2023-08-31T02:43:27.145Z,72708.19
2023-08-31T02:43:59.623Z,72710.16
2023-08-31T02:44:34.568Z,72706.19
2023-08-31T02:45:08.075Z,72710.16
2023-08-31T02:45:40.458Z,72706.19
2023-08-31T02:46:14.004Z,72702.19
2023-08-31T02:46:49.313Z,72708.19
2023-08-31T02:47:21.728Z,72714.16
2023-08-31T02:47:54.398Z,72706.19
2023-08-31T02:48:27.256Z,72712.16
2023-08-31T02:49:02.311Z,72714.16
2023-08-31T02:49:34.734Z,72704.19
2023-08-31T02:50:08.846Z,72706.19
2023-08-31T02:50:41.252Z,72708.19
2023-08-31T02:51:16.428Z,72708.19
2023-08-31T02:51:50.533Z,72708.19
2023-08-31T02:52:22.923Z,72712.16
2023-08-31T02:52:58.729Z,72714.16
2023-08-31T02:53:31.270Z,72714.16
2023-08-31T02:54:04.858Z,72714.16
2023-08-31T02:54:37.242Z,72714.16
2023-08-31T02:55:14.974Z,72714.16
2023-08-31T02:55:47.439Z,72718.16
2023-08-31T02:56:19.842Z,72716.16
2023-08-31T02:56:53.046Z,72718.16
2023-08-31T02:57:25.425Z,72718.16
2023-08-31T02:58:00.450Z,72724.13
2023-08-31T02:58:33.429Z,72718.16
2023-08-31T02:59:05.901Z,72722.16
2023-08-31T02:59:38.415Z,72722.16
2023-08-31T03:00:14.995Z,72718.16
2023-08-31T03:00:49.526Z,72714.16
2023-08-31T03:01:24.515Z,72722.16
2023-08-31T03:01:58.579Z,72722.16
2023-08-31T03:02:31.247Z,72722.16
2023-08-31T03:03:06.450Z,72724.13
2023-08-31T03:03:39.102Z,72730.13
2023-08-31T03:04:11.625Z,72722.16
2023-08-31T03:04:44.019Z,72726.13
2023-08-31T03:05:19.218Z,72730.13
2023-08-31T03:05:56.650Z,72730.13
2023-08-31T03:06:29.041Z,72722.16
2023-08-31T03:07:01.741Z,72730.13
2023-08-31T03:07:34.134Z,72728.13
2023-08-31T03:08:09.840Z,72730.13
2023-08-31T03:08:42.276Z,72730.13
2023-08-31T03:09:14.973Z,72726.13
2023-08-31T03:09:50.891Z,72726.13
2023-08-31T03:10:28.636Z,72730.13
2023-08-31T03:11:01.037Z,72726.13
2023-08-31T03:11:33.395Z,72722.16
2023-08-31T03:12:06.445Z,72726.13
2023-08-31T03:12:41.411Z,72726.13
2023-08-31T03:13:13.918Z,72726.13
2023-08-31T03:13:46.496Z,72720.16
2023-08-31T03:14:18.953Z,72722.16
2023-08-31T03:14:53.947Z,72730.13
2023-08-31T03:15:26.370Z,72724.13
2023-08-31T03:15:58.880Z,72724.13
2023-08-31T03:16:34.119Z,72728.13
2023-08-31T03:17:06.497Z,72726.13
2023-08-31T03:17:38.939Z,72730.13
2023-08-31T03:18:11.392Z,72734.13
2023-08-31T03:18:46.374Z,72732.13
2023-08-31T03:19:18.938Z,72736.13
2023-08-31T03:19:51.745Z,72742.09
2023-08-31T03:20:26.725Z,72738.13
2023-08-31T03:20:59.299Z,72738.13
2023-08-31T03:21:31.653Z,72740.09
2023-08-31T03:22:04.283Z,72738.13
2023-08-31T03:22:39.291Z,72738.13
2023-08-31T03:23:12.744Z,72740.09
2023-08-31T03:23:45.356Z,72746.09
2023-08-31T03:24:18.517Z,72746.09
2023-08-31T03:24:53.523Z,72746.09
2023-08-31T03:25:31.661Z,72748.09
2023-08-31T03:26:08.481Z,72750.09
2023-08-31T03:26:43.530Z,72754.09
2023-08-31T03:27:17.201Z,72754.09
2023-08-31T03:27:50.359Z,72750.09
2023-08-31T03:28:22.716Z,72750.09
2023-08-31T03:28:57.701Z,72758.06
2023-08-31T03:29:30.341Z,72754.09
2023-08-31T03:30:03.213Z,72758.06
2023-08-31T03:30:35.672Z,72752.09
2023-08-31T03:31:11.248Z,72758.06
2023-08-31T03:31:43.658Z,72762.06
2023-08-31T03:32:16.077Z,72760.06
2023-08-31T03:32:51.101Z,72766.06
2023-08-31T03:33:24.561Z,72768.06
2023-08-31T03:33:57.069Z,72762.06
2023-08-31T03:34:33.520Z,72766.06
2023-08-31T03:35:07.323Z,72762.06
2023-08-31T03:35:39.993Z,72758.06
2023-08-31T03:36:13.493Z,72766.06
2023-08-31T03:36:48.498Z,72766.06
2023-08-31T03:37:23.205Z,72770.06
2023-08-31T03:37:56.083Z,72764.06
2023-08-31T03:38:31.357Z,72768.06
2023-08-31T03:39:05.962Z,72762.06
2023-08-31T03:39:38.527Z,72764.06
2023-08-31T03:40:13.955Z,72766.06
2023-08-31T03:40:56.815Z,72762.06
2023-08-31T03:41:29.449Z,72762.06
2023-08-31T03:42:04.424Z,72764.06
2023-08-31T03:42:37.573Z,72764.06
2023-08-31T03:43:12.079Z,72766.06
2023-08-31T03:43:45.401Z,72762.06
2023-08-31T03:44:20.504Z,72766.06
2023-08-31T03:44:52.865Z,72766.06
2023-08-31T03:45:25.280Z,72770.06
2023-08-31T03:45:58.403Z,72764.06
2023-08-31T03:46:33.752Z,72770.06
2023-08-31T03:47:06.625Z,72766.06
2023-08-31T03:47:39.209Z,72768.06
2023-08-31T03:48:11.597Z,72770.06
2023-08-31T03:48:46.630Z,72768.06
2023-08-31T03:49:19.067Z,72762.06
2023-08-31T03:49:51.679Z,72774.03
2023-08-31T03:50:24.065Z,72770.06
2023-08-31T03:50:59.393Z,72776.03
2023-08-31T03:51:31.765Z,72770.06
2023-08-31T03:52:05.012Z,72778.03
2023-08-31T03:52:37.920Z,72780.03
2023-08-31T03:53:10.617Z,72778.03
2023-08-31T03:53:46.255Z,72784.03
2023-08-31T03:54:18.831Z,72780.03
2023-08-31T03:54:53.789Z,72786.00
2023-08-31T03:55:27.723Z,72784.03
2023-08-31T03:56:05.813Z,72790.00
2023-08-31T03:56:38.768Z,72786.00
2023-08-31T03:57:11.135Z,72790.00
2023-08-31T03:57:46.181Z,72790.00
2023-08-31T03:58:23.545Z,72788.00
2023-08-31T03:58:57.820Z,72790.00
2023-08-31T03:59:30.192Z,72794.00
2023-08-31T04:00:09.966Z,72788.00
2023-08-31T04:00:46.474Z,72790.00
2023-08-31T04:01:19.173Z,72790.00
2023-08-31T04:01:52.217Z,72790.00
2023-08-31T04:02:28.453Z,72790.00
2023-08-31T04:03:02.531Z,72790.00
2023-08-31T04:03:35.316Z,72790.00
2023-08-31T04:04:07.816Z,72794.00
2023-08-31T04:04:42.870Z,72794.00
2023-08-31T04:05:16.515Z,72798.00
2023-08-31T04:05:49.987Z,72794.00
2023-08-31T04:06:22.345Z,72790.00
2023-08-31T04:06:57.514Z,72794.00
2023-08-31T04:07:30.230Z,72794.00
2023-08-31T04:08:02.714Z,72794.00
2023-08-31T04:08:37.765Z,72794.00
2023-08-31T04:09:10.255Z,72796.00
2023-08-31T04:09:42.623Z,72798.00
2023-08-31T04:10:15.213Z,72794.00
2023-08-31T04:10:50.169Z,72798.00
2023-08-31T04:11:26.577Z,72794.00
2023-08-31T04:11:58.947Z,72794.00
2023-08-31T04:12:31.886Z,72794.00
2023-08-31T04:13:08.355Z,72794.00
2023-08-31T04:13:40.794Z,72794.00
2023-08-31T04:14:14.653Z,72796.00
2023-08-31T04:14:47.083Z,72794.00
2023-08-31T04:15:22.124Z,72794.00
2023-08-31T04:15:54.734Z,72794.00
2023-08-31T04:16:27.167Z,72794.00
2023-08-31T04:16:59.538Z,72794.00
2023-08-31T04:17:34.797Z,72784.03
2023-08-31T04:18:07.385Z,72790.00
2023-08-31T04:18:39.843Z,72794.00
2023-08-31T04:19:12.377Z,72792.00
2023-08-31T04:19:47.357Z,72790.00
2023-08-31T04:20:19.778Z,72794.00
2023-08-31T04:20:53.463Z,72794.00
2023-08-31T04:21:28.440Z,72788.00
2023-08-31T04:22:00.778Z,72790.00
2023-08-31T04:22:33.139Z,72788.00
2023-08-31T04:23:05.639Z,72790.00
2023-08-31T04:23:40.676Z,72790.00
2023-08-31T04:24:13.090Z,72792.00
2023-08-31T04:24:45.584Z,72790.00
2023-08-31T04:25:18.125Z,72790.00
2023-08-31T04:25:54.687Z,72790.00
2023-08-31T04:26:30.779Z,72790.00
2023-08-31T04:27:03.123Z,72790.00
2023-08-31T04:27:40.466Z,72792.00
2023-08-31T04:28:12.826Z,72784.03
2023-08-31T04:28:45.227Z,72788.00
2023-08-31T04:29:20.820Z,72790.00
2023-08-31T04:29:53.175Z,72790.00
2023-08-31T04:30:25.658Z,72790.00
2023-08-31T04:31:00.597Z,72792.00
2023-08-31T04:31:33.138Z,72790.00
2023-08-31T04:32:06.492Z,72798.00
2023-08-31T04:32:39.006Z,72794.00
2023-08-31T04:33:14.274Z,72801.97
2023-08-31T04:33:47.146Z,72798.00
2023-08-31T04:34:19.494Z,72803.97
2023-08-31T04:34:56.624Z,72801.97
2023-08-31T04:35:29.971Z,72805.97
2023-08-31T04:36:02.584Z,72803.97
2023-08-31T04:36:35.184Z,72798.00
2023-08-31T04:37:10.240Z,72809.97
2023-08-31T04:37:42.590Z,72813.97
2023-08-31T04:38:14.920Z,72809.97
2023-08-31T04:38:47.341Z,72813.97
2023-08-31T04:39:22.375Z,72813.97
2023-08-31T04:39:54.975Z,72813.97
2023-08-31T04:40:28.912Z,72813.97
2023-08-31T04:41:01.641Z,72819.94
2023-08-31T04:41:39.195Z,72821.94
2023-08-31T04:42:11.625Z,72821.94
2023-08-31T04:42:44.012Z,72825.94
2023-08-31T04:43:16.367Z,72823.94
2023-08-31T04:43:51.889Z,72829.94
2023-08-31T04:44:24.258Z,72825.94
2023-08-31T04:44:56.614Z,72817.94
2023-08-31T04:45:29.057Z,72825.94
2023-08-31T04:46:05.306Z,72825.94
2023-08-31T04:46:37.738Z,72825.94
2023-08-31T04:47:10.098Z,72825.94
2023-08-31T04:47:45.381Z,72825.94
2023-08-31T04:48:17.810Z,72829.94
2023-08-31T04:48:50.154Z,72829.94
2023-08-31T04:49:25.237Z,72827.94
2023-08-31T04:49:58.619Z,72827.94
2023-08-31T04:50:31.338Z,72831.94
2023-08-31T04:51:05.336Z,72829.94
2023-08-31T04:51:43.073Z,72833.91
2023-08-31T04:52:15.435Z,72829.94
2023-08-31T04:52:47.779Z,72833.91
2023-08-31T04:53:20.148Z,72837.91
2023-08-31T04:53:55.122Z,72837.91
2023-08-31T04:54:27.496Z,72833.91
2023-08-31T04:55:02.708Z,72837.91
2023-08-31T04:55:35.175Z,72837.91
2023-08-31T04:56:10.146Z,72833.91
2023-08-31T04:56:45.092Z,72827.94
2023-08-31T04:57:17.510Z,72835.91
2023-08-31T04:57:49.912Z,72833.91
2023-08-31T04:58:24.969Z,72831.94
2023-08-31T04:58:57.342Z,72829.94
2023-08-31T04:59:30.123Z,72827.94
2023-08-31T05:00:02.769Z,72829.94
2023-08-31T05:00:37.739Z,72829.94
2023-08-31T05:01:10.918Z,72831.94
2023-08-31T05:01:44.346Z,72833.91
2023-08-31T05:02:20.292Z,72833.91
2023-08-31T05:02:52.704Z,72825.94
2023-08-31T05:03:25.221Z,72833.91
2023-08-31T05:03:57.615Z,72831.94
2023-08-31T05:04:32.575Z,72829.94
2023-08-31T05:05:06.194Z,72831.94
2023-08-31T05:05:38.601Z,72829.94
2023-08-31T05:06:13.656Z,72831.94
2023-08-31T05:06:46.102Z,72829.94
2023-08-31T05:07:18.474Z,72831.94
2023-08-31T05:07:53.431Z,72831.94
2023-08-31T05:08:25.803Z,72829.94
2023-08-31T05:08:58.232Z,72833.91
2023-08-31T05:09:33.576Z,72833.91
2023-08-31T05:10:10.408Z,72837.91
2023-08-31T05:10:42.863Z,72831.94
2023-08-31T05:11:15.234Z,72833.91
2023-08-31T05:11:50.189Z,72837.91
2023-08-31T05:12:25.172Z,72839.91
2023-08-31T05:12:57.667Z,72835.91
2023-08-31T05:13:30.061Z,72837.91
2023-08-31T05:14:02.414Z,72833.91
2023-08-31T05:14:38.550Z,72833.91
2023-08-31T05:15:11.545Z,72835.91
2023-08-31T05:15:43.909Z,72837.91
2023-08-31T05:16:16.321Z,72833.91
2023-08-31T05:16:51.449Z,72839.91
2023-08-31T05:17:23.994Z,72831.94
2023-08-31T05:17:56.402Z,72837.91
2023-08-31T05:18:31.404Z,72837.91
2023-08-31T05:19:04.132Z,72839.91
2023-08-31T05:19:36.508Z,72837.91
2023-08-31T05:20:12.881Z,72835.91
2023-08-31T05:20:46.547Z,72833.91
2023-08-31T05:21:18.933Z,72835.91
2023-08-31T05:21:51.269Z,72837.91
2023-08-31T05:22:26.372Z,72833.91
2023-08-31T05:22:59.026Z,72833.91
2023-08-31T05:23:31.577Z,72833.91
2023-08-31T05:24:07.122Z,72829.94
2023-08-31T05:24:39.744Z,72825.94
2023-08-31T05:25:12.096Z,72831.94
2023-08-31T05:25:44.582Z,72833.91
2023-08-31T05:26:19.504Z,72831.94
2023-08-31T05:26:54.508Z,72827.94
2023-08-31T05:27:26.845Z,72827.94
2023-08-31T05:28:01.810Z,72831.94
2023-08-31T05:28:34.246Z,72831.94
2023-08-31T05:29:06.670Z,72831.94
2023-08-31T05:29:39.018Z,72829.94
2023-08-31T05:30:14.628Z,72831.94
2023-08-31T05:30:51.319Z,72833.91
2023-08-31T05:31:23.746Z,72831.94
2023-08-31T05:31:56.130Z,72833.91
2023-08-31T05:32:32.686Z,72831.94
2023-08-31T05:33:06.178Z,72829.94
2023-08-31T05:33:38.732Z,72823.94
2023-08-31T05:34:14.399Z,72833.91
2023-08-31T05:34:46.893Z,72823.94
2023-08-31T05:35:19.507Z,72821.94
2023-08-31T05:35:51.854Z,72825.94
2023-08-31T05:36:27.880Z,72827.94
2023-08-31T05:37:00.303Z,72829.94
2023-08-31T05:37:34.288Z,72821.94
2023-08-31T05:38:06.647Z,72821.94
2023-08-31T05:38:41.686Z,72821.94
2023-08-31T05:39:14.093Z,72817.94
2023-08-31T05:39:49.491Z,72821.94
2023-08-31T05:40:22.996Z,72821.94
2023-08-31T05:40:57.959Z,72823.94
2023-08-31T05:41:30.321Z,72823.94
2023-08-31T05:42:05.856Z,72821.94
2023-08-31T05:42:38.259Z,72823.94
2023-08-31T05:43:13.464Z,72817.94
2023-08-31T05:43:46.935Z,72827.94
2023-08-31T05:44:19.344Z,72817.94
2023-08-31T05:44:51.693Z,72821.94
2023-08-31T05:45:26.709Z,72817.94
2023-08-31T05:45:59.055Z,72821.94
2023-08-31T05:46:31.448Z,72825.94
2023-08-31T05:47:04.835Z,72825.94
2023-08-31T05:47:39.940Z,72817.94
2023-08-31T05:48:12.535Z,72817.94
2023-08-31T05:48:45.094Z,72819.94
2023-08-31T05:49:20.160Z,72821.94
2023-08-31T05:49:52.730Z,72821.94
2023-08-31T05:50:25.208Z,72817.94
2023-08-31T05:51:00.144Z,72821.94
2023-08-31T05:51:32.537Z,72821.94
2023-08-31T05:52:05.741Z,72821.94
2023-08-31T05:52:38.603Z,72821.94
2023-08-31T05:53:13.837Z,72819.94
2023-08-31T05:53:46.392Z,72817.94
2023-08-31T05:54:18.755Z,72823.94
2023-08-31T05:54:52.148Z,72817.94
2023-08-31T05:55:28.254Z,72821.94
2023-08-31T05:56:04.756Z,72819.94
2023-08-31T05:56:37.166Z,72821.94
2023-08-31T05:57:12.720Z,72817.94
2023-08-31T05:57:47.722Z,72825.94
2023-08-31T05:58:20.069Z,72821.94
2023-08-31T05:58:56.196Z,72825.94
2023-08-31T05:59:31.167Z,72825.94
2023-08-31T06:00:03.804Z,72825.94
2023-08-31T06:00:45.055Z,72829.94
2023-08-31T06:01:20.152Z,72829.94
2023-08-31T06:01:55.007Z,72827.94
2023-08-31T06:02:29.444Z,72833.91
2023-08-31T06:03:01.876Z,72827.94
2023-08-31T06:03:37.799Z,72829.94
2023-08-31T06:04:10.658Z,72833.91
2023-08-31T06:04:43.073Z,72829.94
2023-08-31T06:05:17.653Z,72829.94
2023-08-31T06:05:53.016Z,72833.91
2023-08-31T06:06:25.465Z,72833.91
2023-08-31T06:06:57.815Z,72833.91
2023-08-31T06:07:30.428Z,72837.91
2023-08-31T06:08:05.385Z,72837.91
2023-08-31T06:08:37.778Z,72833.91
2023-08-31T06:09:10.171Z,72841.91
2023-08-31T06:09:45.225Z,72845.91
2023-08-31T06:10:17.906Z,72839.91
2023-08-31T06:10:50.453Z,72841.91
2023-08-31T06:11:22.804Z,72841.91
2023-08-31T06:11:57.753Z,72845.91
2023-08-31T06:12:32.807Z,72833.91
2023-08-31T06:13:05.508Z,72837.91
2023-08-31T06:13:41.349Z,72843.91
2023-08-31T06:14:13.744Z,72835.91
2023-08-31T06:14:46.085Z,72837.91
2023-08-31T06:15:21.324Z,72835.91
2023-08-31T06:15:53.768Z,72837.91
2023-08-31T06:16:26.298Z,72835.91
2023-08-31T06:17:01.314Z,72831.94
2023-08-31T06:17:33.789Z,72841.91
2023-08-31T06:18:07.235Z,72837.91
2023-08-31T06:18:39.623Z,72833.91
2023-08-31T06:19:16.656Z,72835.91
2023-08-31T06:19:49.197Z,72837.91
2023-08-31T06:20:21.555Z,72833.91
2023-08-31T06:20:53.975Z,72833.91
2023-08-31T06:21:28.926Z,72833.91
2023-08-31T06:22:01.280Z,72841.91
2023-08-31T06:22:33.803Z,72839.91
2023-08-31T06:23:06.280Z,72837.91
2023-08-31T06:23:41.246Z,72841.91
2023-08-31T06:24:14.485Z,72841.91
2023-08-31T06:24:47.064Z,72841.91
2023-08-31T06:25:25.563Z,72839.91
2023-08-31T06:25:58.122Z,72837.91
2023-08-31T06:26:30.472Z,72833.91
2023-08-31T06:27:02.879Z,72837.91
2023-08-31T06:27:37.894Z,72833.91
2023-08-31T06:28:13.490Z,72837.91
2023-08-31T06:28:45.822Z,72833.91
2023-08-31T06:29:18.186Z,72839.91
2023-08-31T06:29:53.171Z,72833.91
2023-08-31T06:30:25.926Z,72837.91
2023-08-31T06:30:59.350Z,72833.91
2023-08-31T06:31:34.340Z,72833.91
2023-08-31T06:32:07.536Z,72833.91
2023-08-31T06:32:40.183Z,72833.91
2023-08-31T06:33:15.451Z,72833.91
2023-08-31T06:33:48.217Z,72833.91
2023-08-31T06:34:20.623Z,72833.91
2023-08-31T06:34:56.706Z,72841.91
2023-08-31T06:35:29.093Z,72835.91
2023-08-31T06:36:01.433Z,72843.91
2023-08-31T06:36:36.434Z,72841.91
2023-08-31T06:37:08.822Z,72845.91
2023-08-31T06:37:41.747Z,72853.88
2023-08-31T06:38:14.086Z,72845.91
2023-08-31T06:38:49.061Z,72849.88
2023-08-31T06:39:21.410Z,72849.88
2023-08-31T06:39:53.787Z,72853.88
2023-08-31T06:40:26.202Z,72849.88